Lake Mc Donald, Montana
Current Conditions -  °F | °C
As of 5:55 PM on Friday 28 Nov 2014 (Local Time) from KGPI Reporting Station
Light Rain Light Rain  
Wind Chill: 39°   Ceiling: 3700
Heat Index: 45°   Visibility: 10mi
Dew Point: 38°   Wind: 13mph
Humidity: 76%   Direction: 170°S
Pressure: 29.28"   Gusts: NA
Location:  48.6192°N, 113.874°W
Report Text: KGPI 290055Z 17011KT 10SM -RA BKN037 OVC055 07/03 A2928 RMK AO2 SLP921 P0000 T00720033
Loading
Personal Weather Stations






























Interactive Weather Map New forecast layout! Learn more

10-Day Weather Forecast

Advertisements
Track Severe Weather on mobile